map of BVI home
Great Circle Mapper logo
BVI - Airport
Location
City:  Birdsville, Queensland, Australia
ICAO / IATA:YBDV / BVI

Details
Type:Airport (Aerodrome, Airfield)
Latitude:2553'51"S (-25.897499)
Longitude:13920'51"E (139.347500)
Datum:WGS 1984
Elevation:159 ft (48 m)
Runways:2
Longest:5682 × 98 ft (1732 × 30 m), paved

Time
Time Zone:UTC+10
Local Time:

Weather
METAR:YBDV 212100Z AUTO 04005KT //// // ////// 23/01 Q1018

Related Locations
Nearby:
Farthest:FLW: 11349 mi / 18264 km
Flores Island [Santa Cruz], Azores, PT

Find:

   beyond  
but within

Other Information
Maps:
NOTAMs:
Links:
Sources:

  
flag of Australia
flag of Queensland
  

Sectional Chart

Flight Planning
at skyvector.com

Satellite Image

Google Maps Satellite View

 

Copyright © 2004-2014 Karl L. Swartz. All rights reserved.
The Great Circle Mapper name and logo are trademarks of the Great Circle Mapper.
All other trademarks mentioned herein belong to their respective owners.
Please see credits for attibutions and further copyright information.

  Follow gcmap on Facebook Follow gcmap on Twitter

hCard Microformat

Geo Microformat